Time;durP1;ratioP1;P1;durP2;ratioP2;P2;SDS_P1;SDS_P2;PMS_P1;PMS_P2;Temp;Humidity;BMP_temperature;BMP_pressure;BME280_temperature;BME280_humidity;BME280_pressure;Samples;Min_cycle;Max_cycle;Signal;HPM_P1;HPM_P2
2021/03/22 00:02:49;;;;;;;9.97;5.73;;;;;;;-0.21;83.14;98220.95;258853;1109;23140;-75
2021/03/22 00:07:55;;;;;;;12.60;6.97;;;;;;;-0.33;82.66;98217.53;258877;1109;23157;-74
2021/03/22 00:12:59;;;;;;;9.87;5.87;;;;;;;-0.45;83.04;98222.79;258996;1108;23011;-75
2021/03/22 00:18:07;;;;;;;11.43;6.07;;;;;;;-0.56;82.59;98227.05;258750;1107;23013;-76
2021/03/22 00:23:10;;;;;;;9.60;5.73;;;;;;;-0.67;83.62;98233.11;258735;1107;23027;-75
2021/03/22 00:28:15;;;;;;;10.73;5.73;;;;;;;-0.75;83.06;98236.87;258813;1109;23071;-75
2021/03/22 00:33:19;;;;;;;7.83;5.30;;;;;;;-0.81;82.79;98240.42;258780;1107;23043;-76
2021/03/22 00:38:21;;;;;;;8.30;5.23;;;;;;;-0.89;82.96;98246.80;258668;1109;23014;-74
2021/03/22 00:43:24;;;;;;;9.73;5.97;;;;;;;-0.93;83.06;98248.28;258547;1109;23135;-75
2021/03/22 00:48:32;;;;;;;10.30;5.55;;;;;;;-0.95;83.75;98252.16;258834;1108;23028;-75
2021/03/22 00:53:35;;;;;;;9.20;5.73;;;;;;;-1.00;84.23;98242.33;258653;1108;23013;-74
2021/03/22 00:58:40;;;;;;;9.93;5.83;;;;;;;-1.04;83.60;98254.31;258636;1109;23024;-74
2021/03/22 01:03:42;;;;;;;10.00;5.27;;;;;;;-1.10;83.20;98250.77;258783;1108;23017;-74
2021/03/22 01:08:45;;;;;;;8.83;4.63;;;;;;;-1.13;83.54;98258.31;258812;1108;23145;-75
2021/03/22 01:13:59;;;;;;;13.37;6.00;;;;;;;-1.19;83.44;98257.36;258759;1107;22968;-74
2021/03/22 01:19:16;;;;;;;11.43;6.03;;;;;;;-1.24;83.22;98254.62;258716;1109;23173;-74
2021/03/22 01:24:20;;;;;;;10.07;5.10;;;;;;;-1.27;83.50;98260.33;258815;1107;23033;-74
2021/03/22 01:29:27;;;;;;;8.73;5.37;;;;;;;-1.34;84.26;98265.67;258877;1109;23205;-74
2021/03/22 01:34:30;;;;;;;9.30;5.43;;;;;;;-1.37;83.36;98266.13;258644;1109;23080;-74
2021/03/22 01:39:36;;;;;;;10.50;5.40;;;;;;;-1.43;84.25;98261.73;258880;1108;23340;-73
2021/03/22 01:44:41;;;;;;;10.93;5.30;;;;;;;-1.46;83.94;98259.56;259119;1109;23097;-73
2021/03/22 01:49:56;;;;;;;10.30;5.53;;;;;;;-1.49;83.51;98262.64;258902;1109;23209;-75
2021/03/22 01:54:59;;;;;;;10.87;5.83;;;;;;;-1.55;83.75;98262.50;258962;1108;23076;-74
2021/03/22 02:00:25;;;;;;;11.60;6.37;;;;;;;-1.61;83.31;98268.65;258934;1108;23256;-74
2021/03/22 02:05:30;;;;;;;11.13;5.83;;;;;;;-1.64;84.05;98276.95;258947;1108;23480;-74
2021/03/22 02:10:34;;;;;;;13.03;6.53;;;;;;;-1.69;83.86;98274.20;259143;1108;23225;-74
2021/03/22 02:15:39;;;;;;;10.03;5.60;;;;;;;-1.72;84.37;98270.19;258954;1107;23072;-74
2021/03/22 02:21:34;;;;;;;11.73;5.70;;;;;;;-1.77;84.18;98270.03;259038;1108;26028;-73
2021/03/22 02:26:48;;;;;;;15.57;6.53;;;;;;;-1.80;83.95;98280.98;259117;1108;23023;-75
2021/03/22 02:31:53;;;;;;;11.55;5.80;;;;;;;-1.83;83.87;98277.98;259092;1109;23087;-75
2021/03/22 02:36:55;;;;;;;11.67;6.23;;;;;;;-1.91;84.16;98281.72;258877;1109;23172;-74
2021/03/22 02:42:00;;;;;;;10.60;6.13;;;;;;;-1.95;83.61;98285.80;259029;1108;23128;-74
2021/03/22 02:47:19;;;;;;;11.83;6.07;;;;;;;-1.99;84.19;98303.80;258729;1107;26255;-74
2021/03/22 02:52:59;;;;;;;13.60;6.60;;;;;;;-2.06;84.02;98310.95;258967;1109;23100;-75
2021/03/22 02:58:12;;;;;;;10.57;5.97;;;;;;;-2.13;83.72;98318.09;258941;1109;23063;-75
2021/03/22 03:03:19;;;;;;;16.20;7.87;;;;;;;-2.17;83.85;98319.54;258943;1108;23073;-74
2021/03/22 03:08:30;;;;;;;13.10;6.90;;;;;;;-2.20;83.58;98314.73;259026;1108;23030;-74
2021/03/22 03:13:34;;;;;;;14.37;7.70;;;;;;;-2.23;84.06;98321.20;258927;1108;23022;-74
2021/03/22 03:18:36;;;;;;;19.23;7.83;;;;;;;-2.28;83.81;98326.29;259108;1108;23593;-74
2021/03/22 03:23:38;;;;;;;15.70;8.67;;;;;;;-2.32;84.00;98327.73;258967;1109;23036;-74
2021/03/22 03:28:40;;;;;;;16.67;8.87;;;;;;;-2.35;83.84;98334.24;258771;1109;23030;-73
2021/03/22 03:33:44;;;;;;;13.67;7.93;;;;;;;-2.33;83.93;98331.41;259331;1108;23026;-74
2021/03/22 03:38:46;;;;;;;16.50;8.67;;;;;;;-2.32;84.36;98332.98;258682;1109;23026;-74
2021/03/22 03:43:48;;;;;;;15.07;7.60;;;;;;;-2.34;84.16;98333.20;258977;1109;23023;-74
2021/03/22 03:48:50;;;;;;;12.37;7.30;;;;;;;-2.31;84.51;98339.84;258886;1109;23021;-74
2021/03/22 03:53:53;;;;;;;21.03;9.90;;;;;;;-2.29;84.39;98343.08;258891;1108;23081;-74
2021/03/22 03:58:55;;;;;;;17.87;9.10;;;;;;;-2.28;84.30;98349.91;258901;1108;23037;-74
2021/03/22 04:03:57;;;;;;;16.60;8.40;;;;;;;-2.32;84.59;98352.17;258933;1107;23226;-75
2021/03/22 04:09:06;;;;;;;19.37;9.10;;;;;;;-2.33;84.25;98361.05;259035;1108;23228;-75
2021/03/22 04:14:18;;;;;;;22.23;12.10;;;;;;;-2.36;84.59;98374.61;258681;1109;23022;-74
2021/03/22 04:19:20;;;;;;;22.60;11.55;;;;;;;-2.37;84.54;98375.62;258990;1108;23090;-74
2021/03/22 04:24:22;;;;;;;24.27;12.87;;;;;;;-2.39;84.25;98375.04;259189;1109;23055;-74
2021/03/22 04:29:25;;;;;;;18.63;10.73;;;;;;;-2.41;84.53;98382.30;258830;1109;23100;-74
2021/03/22 04:34:27;;;;;;;19.37;10.37;;;;;;;-2.44;84.64;98390.61;258961;1109;23503;-74
2021/03/22 04:39:29;;;;;;;20.37;10.57;;;;;;;-2.40;84.54;98383.92;259117;1108;23215;-74
2021/03/22 04:44:31;;;;;;;21.23;9.73;;;;;;;-2.35;84.44;98389.34;259046;1109;23013;-74
2021/03/22 04:49:34;;;;;;;19.43;10.23;;;;;;;-2.28;85.20;98379.59;259027;1109;23077;-75
2021/03/22 04:54:36;;;;;;;20.13;9.80;;;;;;;-2.18;85.03;98386.16;259050;1108;23196;-73
2021/03/22 04:59:39;;;;;;;21.27;12.77;;;;;;;-2.07;84.69;98390.70;258952;1109;26776;-74
2021/03/22 05:04:41;;;;;;;19.23;9.47;;;;;;;-1.96;84.48;98386.58;259345;1108;26553;-74
2021/03/22 05:09:44;;;;;;;20.87;9.93;;;;;;;-1.86;84.98;98400.03;258997;1109;23020;-75
2021/03/22 05:14:46;;;;;;;20.10;10.70;;;;;;;-1.72;84.72;98403.34;259133;1109;23034;-74
2021/03/22 05:19:48;;;;;;;18.50;9.40;;;;;;;-1.58;85.08;98424.99;258679;1109;23030;-74
2021/03/22 05:24:50;;;;;;;24.90;12.47;;;;;;;-1.52;84.99;98424.14;258989;1109;23033;-74
2021/03/22 05:29:52;;;;;;;21.37;11.80;;;;;;;-1.50;83.96;98432.59;259044;1108;23251;-74
2021/03/22 05:34:54;;;;;;;25.13;12.97;;;;;;;-1.36;84.86;98438.51;258754;1109;23095;-74
2021/03/22 05:39:57;;;;;;;32.93;17.27;;;;;;;-1.16;85.06;98443.56;259072;1108;23223;-73
2021/03/22 05:45:05;;;;;;;38.90;19.57;;;;;;;-0.87;84.99;98443.81;258755;1109;23100;-74
2021/03/22 05:50:30;;;;;;;38.17;17.37;;;;;;;-0.54;84.64;98451.27;258669;1109;23187;-73
2021/03/22 05:55:54;;;;;;;25.00;13.00;;;;;;;-0.30;84.62;98456.60;259209;1109;23087;-74
2021/03/22 06:01:16;;;;;;;20.87;11.13;;;;;;;-0.03;84.74;98458.83;259051;1109;23097;-74
2021/03/22 06:06:38;;;;;;;17.60;10.70;;;;;;;0.12;83.44;98459.19;259234;1109;23238;-74
2021/03/22 06:11:58;;;;;;;17.57;9.80;;;;;;;0.32;84.19;98466.78;259047;1108;23080;-74
2021/03/22 06:17:26;;;;;;;21.00;11.65;;;;;;;0.46;83.97;98477.08;259142;1108;23029;-74
2021/03/22 06:22:41;;;;;;;18.80;10.80;;;;;;;0.63;82.69;98482.45;258924;1108;22971;-74
2021/03/22 06:27:51;;;;;;;15.10;9.57;;;;;;;0.76;82.56;98482.23;258968;1108;23202;-73
2021/03/22 06:32:57;;;;;;;14.17;8.20;;;;;;;0.91;82.43;98488.84;258945;1107;23009;-74
2021/03/22 06:38:00;;;;;;;18.97;10.33;;;;;;;1.04;81.97;98496.52;259130;1108;23046;-73
2021/03/22 06:43:07;;;;;;;18.53;9.70;;;;;;;1.16;81.00;98502.58;259093;1108;23474;-75
2021/03/22 06:48:25;;;;;;;23.60;10.13;;;;;;;1.27;80.40;98511.48;259553;1108;23087;-74
2021/03/22 06:53:48;;;;;;;19.23;9.90;;;;;;;1.44;80.34;98501.01;259590;1109;23080;-74
2021/03/22 06:59:08;;;;;;;17.80;9.15;;;;;;;1.59;80.08;98513.67;259588;1109;24037;-75
2021/03/22 07:04:31;;;;;;;16.30;8.33;;;;;;;1.88;79.21;98519.74;259506;1108;23090;-75
2021/03/22 07:09:35;;;;;;;17.47;8.60;;;;;;;2.10;79.02;98521.71;259851;1108;22983;-74
2021/03/22 07:14:38;;;;;;;14.07;7.80;;;;;;;2.43;78.09;98517.46;260093;1109;23016;-76
2021/03/22 07:19:42;;;;;;;17.43;9.07;;;;;;;2.61;77.54;98532.28;260008;1108;23209;-75
2021/03/22 07:24:59;;;;;;;24.60;10.80;;;;;;;2.69;76.75;98542.45;259805;1107;23086;-75
2021/03/22 07:30:32;;;;;;;26.93;11.70;;;;;;;2.82;76.36;98543.95;260133;1109;24793;-75
2021/03/22 07:36:28;;;;;;;22.00;10.00;;;;;;;3.00;76.21;98545.52;259543;1107;23284;-74
2021/03/22 07:41:49;;;;;;;21.35;11.35;;;;;;;3.10;75.80;98552.80;260287;1107;23087;-76
2021/03/22 07:47:08;;;;;;;19.10;11.10;;;;;;;3.20;74.69;98546.84;260347;1108;24008;-75
2021/03/22 07:52:33;;;;;;;19.40;10.75;;;;;;;3.27;74.51;98554.61;260130;1109;24822;-73
2021/03/22 07:57:55;;;;;;;21.07;11.40;;;;;;;3.41;74.70;98555.83;260177;1109;23044;-75
2021/03/22 08:03:16;;;;;;;26.40;15.07;;;;;;;3.68;75.22;98560.37;260077;1108;23481;-76
2021/03/22 08:08:42;;;;;;;31.80;16.47;;;;;;;3.92;73.53;98561.70;259595;1109;23037;-75
2021/03/22 08:14:13;;;;;;;27.17;14.90;;;;;;;4.22;73.21;98564.90;259519;1108;23008;-74
2021/03/22 08:19:27;;;;;;;23.93;13.50;;;;;;;4.32;72.15;98569.49;259436;1108;23030;-72
2021/03/22 08:24:55;;;;;;;18.33;10.57;;;;;;;4.49;71.74;98572.02;259688;1108;23760;-73
2021/03/22 08:30:23;;;;;;;21.63;10.50;;;;;;;4.41;70.80;98575.95;259402;1109;23368;-74
2021/03/22 08:35:35;;;;;;;19.67;9.30;;;;;;;4.43;70.28;98581.78;259571;1108;26564;-74
2021/03/22 08:40:43;;;;;;;16.57;9.73;;;;;;;4.64;70.65;98585.40;259634;1108;23813;-73
2021/03/22 08:46:05;;;;;;;15.57;9.33;;;;;;;4.67;69.07;98586.75;259353;1108;23351;-74
2021/03/22 08:51:22;;;;;;;15.07;8.97;;;;;;;4.75;68.93;98588.94;259462;1108;23094;-74
2021/03/22 08:56:40;;;;;;;17.23;9.13;;;;;;;4.87;68.18;98605.48;259868;1109;23021;-74
2021/03/22 09:01:43;;;;;;;17.17;9.73;;;;;;;5.06;68.74;98599.77;259336;1109;23312;-75
2021/03/22 09:07:21;;;;;;;19.87;10.40;;;;;;;4.94;66.67;98603.41;259523;1108;23027;-73
2021/03/22 09:12:29;;;;;;;18.95;10.80;;;;;;;4.80;66.75;98600.39;259680;1108;23018;-74
2021/03/22 09:18:08;;;;;;;17.55;9.65;;;;;;;4.87;66.64;98600.17;259401;1109;23223;-74
2021/03/22 09:23:29;;;;;;;15.55;8.90;;;;;;;4.88;67.14;98607.09;259406;1108;23046;-74
2021/03/22 09:28:41;;;;;;;15.95;9.25;;;;;;;4.93;66.93;98612.42;259376;1108;23037;-75
2021/03/22 09:33:56;;;;;;;15.57;8.80;;;;;;;5.16;66.40;98615.75;259393;1109;23060;-74
2021/03/22 09:39:01;;;;;;;16.87;9.67;;;;;;;5.07;64.95;98610.12;259634;1109;23180;-74
2021/03/22 09:44:11;;;;;;;14.30;8.70;;;;;;;5.06;64.50;98613.83;259719;1108;23147;-74
2021/03/22 09:49:22;;;;;;;14.03;8.87;;;;;;;5.20;65.18;98611.52;259660;1109;27400;-73
2021/03/22 09:54:37;;;;;;;14.57;7.87;;;;;;;5.23;63.97;98616.34;259274;1107;23073;-74
2021/03/22 09:59:59;;;;;;;11.95;6.40;;;;;;;5.11;63.07;98607.77;259736;1108;23079;-74
2021/03/22 10:05:13;;;;;;;11.40;5.70;;;;;;;5.16;62.64;98615.75;259207;1108;23077;-74
2021/03/22 10:10:29;;;;;;;13.50;8.03;;;;;;;5.15;63.10;98606.20;259607;1107;23020;-73
2021/03/22 10:15:37;;;;;;;7.37;4.40;;;;;;;5.08;60.67;98608.29;259417;1108;27120;-75
2021/03/22 10:21:01;;;;;;;8.50;4.47;;;;;;;5.09;60.17;98602.72;261268;1108;23471;-74
2021/03/22 10:26:14;;;;;;;5.20;2.87;;;;;;;5.26;59.88;98605.20;260077;1108;23221;-74
2021/03/22 10:31:23;;;;;;;6.60;3.07;;;;;;;5.54;58.38;98605.87;259718;1109;23076;-74
2021/03/22 10:36:33;;;;;;;4.50;2.97;;;;;;;5.64;57.49;98607.77;260501;1107;23667;-75
2021/03/22 10:41:40;;;;;;;;;;;;;;;5.70;56.96;98596.09;259749;1109;24521;-75
2021/03/22 10:46:43;;;;;;;7.00;3.33;;;;;;;5.94;57.14;98593.77;259458;1107;21625;-75
2021/03/22 10:51:51;;;;;;;4.33;2.50;;;;;;;5.97;55.07;98590.64;259179;1108;23024;-74
2021/03/22 10:56:57;;;;;;;4.93;2.17;;;;;;;5.80;54.13;98593.45;259497;1109;23242;-74
2021/03/22 11:02:01;;;;;;;3.63;2.10;;;;;;;5.54;54.31;98587.27;259295;1109;23077;-74
2021/03/22 11:07:17;;;;;;;4.40;1.50;;;;;;;5.38;53.15;98586.39;259617;1109;23084;-74
2021/03/22 11:12:20;;;;;;;3.30;1.80;;;;;;;5.32;52.33;98592.75;259491;1108;23130;-74
2021/03/22 11:17:24;;;;;;;7.23;2.00;;;;;;;5.52;52.93;98597.34;259604;1108;22923;-75
2021/03/22 11:22:27;;;;;;;5.33;2.67;;;;;;;5.44;52.81;98592.52;259536;1109;23091;-74
2021/03/22 11:27:52;;;;;;;8.77;4.43;;;;;;;5.47;55.09;98594.66;259409;1109;23101;-74
2021/03/22 11:32:55;;;;;;;5.80;3.00;;;;;;;5.76;53.86;98595.03;260186;1108;23025;-74
2021/03/22 11:38:03;;;;;;;6.13;3.60;;;;;;;5.96;53.28;98601.48;260367;1109;23504;-75
2021/03/22 11:43:31;;;;;;;6.90;3.00;;;;;;;5.75;51.61;98600.61;259468;1108;23145;-74
2021/03/22 11:48:39;;;;;;;5.70;3.47;;;;;;;5.32;52.18;98606.03;263208;1108;22998;-74
2021/03/22 11:54:01;;;;;;;5.73;3.43;;;;;;;5.06;53.28;98600.55;259158;1108;23154;-74
2021/03/22 11:59:23;;;;;;;5.30;3.43;;;;;;;4.94;54.22;98603.41;260333;1108;23026;-74
2021/03/22 12:04:25;;;;;;;5.10;3.20;;;;;;;4.86;54.03;98606.53;259420;1109;23403;-75
2021/03/22 12:09:29;;;;;;;4.37;2.33;;;;;;;4.76;52.73;98609.13;259798;1107;23004;-75
2021/03/22 12:14:31;;;;;;;3.40;2.40;;;;;;;4.88;51.89;98600.97;260226;1108;23090;-74
2021/03/22 12:19:40;;;;;;;3.47;1.80;;;;;;;5.24;51.94;98601.98;259766;1108;26117;-75
2021/03/22 12:24:42;;;;;;;3.10;2.17;;;;;;;5.63;51.47;98593.67;259607;1107;23401;-74
2021/03/22 12:29:45;;;;;;;4.30;2.40;;;;;;;5.74;50.37;98599.83;261212;1109;23170;-76
2021/03/22 12:34:47;;;;;;;5.33;2.70;;;;;;;5.75;50.42;98605.94;259430;1108;23097;-74
2021/03/22 12:39:49;;;;;;;3.67;2.20;;;;;;;5.77;48.69;98609.94;259588;1108;23226;-75
2021/03/22 12:44:52;;;;;;;4.40;2.67;;;;;;;5.94;50.52;98607.06;259507;1107;26070;-74
2021/03/22 12:49:55;;;;;;;5.50;2.77;;;;;;;6.12;49.52;98605.02;259511;1107;23076;-74
2021/03/22 12:54:57;;;;;;;5.90;3.60;;;;;;;6.08;49.51;98606.60;259491;1107;23022;-74
2021/03/22 12:59:59;;;;;;;4.27;2.70;;;;;;;6.07;49.93;98612.98;259359;1108;23453;-74
2021/03/22 13:05:01;;;;;;;4.03;2.60;;;;;;;6.06;48.98;98606.05;259268;1108;23030;-74
2021/03/22 13:10:04;;;;;;;4.27;2.57;;;;;;;5.92;48.54;98621.70;259261;1109;23087;-75
2021/03/22 13:15:21;;;;;;;4.80;2.50;;;;;;;5.72;48.59;98620.56;259198;1109;22989;-75
2021/03/22 13:20:25;;;;;;;3.57;2.67;;;;;;;5.69;47.86;98623.72;259341;1108;23022;-75
2021/03/22 13:25:27;;;;;;;4.40;2.60;;;;;;;5.59;48.39;98613.06;259326;1108;23026;-74
2021/03/22 13:30:29;;;;;;;4.30;2.37;;;;;;;5.41;49.16;98611.64;259511;1108;23037;-75
2021/03/22 13:35:32;;;;;;;3.10;2.17;;;;;;;5.31;49.47;98615.83;259559;1108;23197;-75
2021/03/22 13:40:34;;;;;;;4.50;2.60;;;;;;;5.23;49.13;98607.56;259617;1107;23034;-74
2021/03/22 13:45:37;;;;;;;4.17;2.93;;;;;;;5.27;49.30;98617.43;259491;1108;23053;-74
2021/03/22 13:50:40;;;;;;;3.00;2.07;;;;;;;5.51;48.00;98629.48;259636;1108;23077;-74
2021/03/22 13:55:42;;;;;;;2.90;1.85;;;;;;;5.80;48.17;98630.67;259611;1109;23071;-74
2021/03/22 14:00:47;;;;;;;3.30;1.97;;;;;;;5.73;47.27;98624.02;259385;1109;23046;-75
2021/03/22 14:05:51;;;;;;;6.25;2.40;;;;;;;5.57;48.93;98642.55;259663;1108;24624;-74
2021/03/22 14:10:54;;;;;;;3.53;2.17;;;;;;;5.32;48.14;98632.59;259350;1108;23884;-75
2021/03/22 14:15:58;;;;;;;6.00;2.57;;;;;;;5.08;48.19;98634.84;259620;1109;23081;-74
2021/03/22 14:21:01;;;;;;;3.17;1.57;;;;;;;4.87;48.10;98634.69;259618;1107;23064;-75
2021/03/22 14:26:03;;;;;;;2.43;1.67;;;;;;;4.58;48.89;98645.58;259409;1109;22975;-75
2021/03/22 14:31:05;;;;;;;3.77;1.50;;;;;;;4.37;48.82;98675.63;259535;1108;23086;-75
2021/03/22 14:36:07;;;;;;;2.73;1.60;;;;;;;3.94;50.82;98673.59;259787;1108;23832;-74
2021/03/22 14:41:09;;;;;;;2.70;1.43;;;;;;;3.80;51.31;98659.08;259524;1107;23025;-74
2021/03/22 14:46:11;;;;;;;5.37;2.93;;;;;;;3.83;52.00;98665.74;259363;1109;23220;-74
2021/03/22 14:51:14;;;;;;;7.40;3.77;;;;;;;3.88;52.10;98661.30;259479;1107;23110;-75
2021/03/22 14:56:16;;;;;;;5.60;2.93;;;;;;;4.03;52.74;98667.82;259954;1107;23091;-75
2021/03/22 15:01:21;;;;;;;6.53;3.20;;;;;;;4.09;55.41;98664.20;260071;1107;23007;-74
2021/03/22 15:06:23;;;;;;;5.67;3.73;;;;;;;3.80;57.00;98677.63;265577;1108;22958;-75
2021/03/22 15:11:25;;;;;;;6.13;3.40;;;;;;;3.53;58.67;98685.50;265580;1107;23951;-74
2021/03/22 15:16:27;;;;;;;6.90;3.13;;;;;;;3.20;59.71;98693.23;265466;1107;22863;-75
2021/03/22 15:21:30;;;;;;;4.57;2.83;;;;;;;2.92;60.11;98696.77;260916;1108;23033;-76
2021/03/22 15:26:32;;;;;;;5.10;2.97;;;;;;;2.72;60.87;98698.03;259179;1108;23380;-75
2021/03/22 15:31:34;;;;;;;8.35;4.25;;;;;;;2.65;61.42;98712.46;259066;1107;23006;-74
2021/03/22 15:36:36;;;;;;;8.53;4.30;;;;;;;2.68;62.81;98696.11;259076;1108;23078;-75
2021/03/22 15:41:38;;;;;;;7.87;4.67;;;;;;;2.76;62.69;98698.36;259175;1107;22997;-74
2021/03/22 15:46:41;;;;;;;7.20;3.67;;;;;;;2.72;63.01;98699.88;259182;1107;23086;-74
2021/03/22 15:51:44;;;;;;;7.43;3.57;;;;;;;2.69;62.99;98698.52;259189;1108;23083;-74
2021/03/22 15:56:46;;;;;;;7.73;3.17;;;;;;;2.73;63.84;98699.64;259015;1109;23154;-74
2021/03/22 16:01:48;;;;;;;5.57;3.07;;;;;;;2.78;63.39;98698.13;259154;1109;23084;-75
2021/03/22 16:06:51;;;;;;;6.57;3.27;;;;;;;2.79;63.81;98702.38;259229;1108;23154;-74
2021/03/22 16:11:53;;;;;;;5.35;3.70;;;;;;;2.77;63.89;98707.09;259307;1109;23107;-75
2021/03/22 16:16:55;;;;;;;5.80;3.33;;;;;;;2.67;63.87;98711.19;259166;1107;22973;-75
2021/03/22 16:21:57;;;;;;;33.90;19.07;;;;;;;2.53;63.85;98702.74;259060;1108;23161;-75
2021/03/22 16:26:59;;;;;;;5.93;3.43;;;;;;;2.42;63.54;98708.89;258854;1107;23199;-77
2021/03/22 16:32:02;;;;;;;6.80;3.20;;;;;;;2.30;63.66;98719.49;259044;1108;23089;-75
2021/03/22 16:37:04;;;;;;;10.40;3.60;;;;;;;2.17;63.93;98732.97;259111;1109;22991;-75
2021/03/22 16:42:08;;;;;;;6.40;3.53;;;;;;;2.06;63.92;98742.55;259116;1109;23077;-76
2021/03/22 16:47:12;;;;;;;6.60;3.60;;;;;;;1.93;64.47;98738.33;259070;1107;23028;-74
2021/03/22 16:53:03;;;;;;;5.80;3.35;;;;;;;1.78;64.83;98746.72;239191;1193;23163;-74
2021/03/22 16:58:09;;;;;;;8.10;3.80;;;;;;;1.69;65.38;98754.20;238993;1199;23137;-75
2021/03/22 17:03:12;;;;;;;8.90;4.53;;;;;;;1.60;66.00;98766.13;239310;1200;23109;-74
2021/03/22 17:08:16;;;;;;;9.20;5.00;;;;;;;1.54;66.67;98769.70;239004;1200;23097;-75
2021/03/22 17:13:19;;;;;;;13.45;7.35;;;;;;;1.44;66.43;98775.55;238990;1200;23163;-75
2021/03/22 17:18:23;;;;;;;14.95;7.60;;;;;;;1.33;66.83;98782.41;239121;1199;23103;-74
2021/03/22 17:23:26;;;;;;;17.90;9.53;;;;;;;1.23;67.58;98778.72;239011;1199;23279;-75
2021/03/22 17:28:30;;;;;;;22.07;9.90;;;;;;;1.11;67.94;98784.78;239333;1202;23102;-74
2021/03/22 17:33:35;;;;;;;34.35;15.45;;;;;;;0.99;68.35;98781.30;239206;1202;23120;-74
2021/03/22 17:38:38;;;;;;;23.23;12.17;;;;;;;0.87;68.91;98791.83;238967;1200;23111;-76
2021/03/22 17:43:42;;;;;;;21.05;11.35;;;;;;;0.80;68.96;98797.19;238942;1200;23240;-75
2021/03/22 17:48:46;;;;;;;20.73;12.03;;;;;;;0.71;69.19;98793.24;239001;1203;23208;-75
2021/03/22 17:53:48;;;;;;;17.10;9.47;;;;;;;0.65;69.16;98797.58;238813;1200;23105;-76
2021/03/22 17:58:51;;;;;;;23.10;12.20;;;;;;;0.60;69.22;98812.45;238908;1200;23111;-76
2021/03/22 18:03:53;;;;;;;30.45;15.65;;;;;;;0.54;69.52;98821.27;238601;1198;23131;-75
2021/03/22 18:08:56;;;;;;;30.33;14.57;;;;;;;0.46;70.21;98812.63;238540;1199;23250;-76
2021/03/22 18:14:01;;;;;;;27.80;13.27;;;;;;;0.41;70.28;98827.50;238599;1199;24584;-76
2021/03/22 18:19:03;;;;;;;36.30;17.53;;;;;;;0.36;70.45;98836.05;238550;1202;23117;-76
2021/03/22 18:24:07;;;;;;;33.65;17.35;;;;;;;0.25;70.27;98839.41;238606;1199;23115;-75
2021/03/22 18:29:10;;;;;;;41.85;21.70;;;;;;;0.12;70.19;98838.52;238728;1202;23129;-75
2021/03/22 18:34:16;;;;;;;46.47;20.83;;;;;;;0.01;70.59;98841.88;238705;1200;23184;-75
2021/03/22 18:39:18;;;;;;;29.70;14.85;;;;;;;-0.09;70.53;98855.55;238523;1200;23266;-74
2021/03/22 18:44:21;;;;;;;49.53;23.93;;;;;;;-0.21;70.91;98863.36;238556;1199;23105;-75
2021/03/22 18:49:24;;;;;;;37.70;19.37;;;;;;;-0.27;70.81;98852.88;238796;1200;23102;-74
2021/03/22 18:54:27;;;;;;;32.27;15.83;;;;;;;-0.33;71.44;98867.70;238679;1200;23115;-74
2021/03/22 18:59:31;;;;;;;42.90;19.10;;;;;;;-0.37;71.49;98869.16;238483;1200;23109;-75
2021/03/22 19:04:34;;;;;;;38.55;18.70;;;;;;;-0.44;72.09;98879.72;238514;1200;23171;-76
2021/03/22 19:09:37;;;;;;;37.43;16.23;;;;;;;-0.49;72.39;98878.75;238424;1202;23105;-75
2021/03/22 19:14:41;;;;;;;43.00;19.90;;;;;;;-0.55;71.81;98894.36;238498;1200;23138;-73
2021/03/22 19:19:45;;;;;;;49.60;22.50;;;;;;;-0.58;71.95;98896.64;238747;1200;23138;-74
2021/03/22 19:24:47;;;;;;;53.90;22.60;;;;;;;-0.62;72.13;98898.08;238480;1199;23115;-75
2021/03/22 19:29:51;;;;;;;56.30;23.77;;;;;;;-0.70;72.57;98897.31;238490;1200;23139;-75
2021/03/22 19:34:54;;;;;;;50.23;22.77;;;;;;;-0.75;72.42;98907.66;238755;1199;23117;-75
2021/03/22 19:39:58;;;;;;;43.20;21.47;;;;;;;-0.79;72.55;98909.09;238485;1200;23125;-76
2021/03/22 19:45:01;;;;;;;45.80;21.30;;;;;;;-0.81;73.06;98920.84;238653;1200;23118;-74
2021/03/22 19:50:10;;;;;;;49.10;23.57;;;;;;;-0.89;72.67;98919.27;238547;1200;23166;-75
2021/03/22 19:55:16;;;;;;;66.23;26.00;;;;;;;-0.93;73.28;98920.70;238449;1200;23185;-75
2021/03/22 20:00:20;;;;;;;54.07;22.63;;;;;;;-1.02;73.43;98930.66;238588;1200;23169;-75
2021/03/22 20:05:25;;;;;;;72.07;27.83;;;;;;;-1.04;73.57;98932.67;238370;1200;23218;-75
2021/03/22 20:10:33;;;;;;;60.05;25.80;;;;;;;-1.10;73.41;98936.95;238664;1200;23262;-75
2021/03/22 20:15:40;;;;;;;57.53;25.17;;;;;;;-1.13;73.91;98944.46;238734;1200;23124;-75
2021/03/22 20:20:44;;;;;;;59.23;25.20;;;;;;;-1.14;74.23;98958.61;238669;1200;23116;-75
2021/03/22 20:25:47;;;;;;;63.83;24.73;;;;;;;-1.22;74.18;98947.31;238449;1199;23116;-75
2021/03/22 20:31:00;;;;;;;53.50;21.60;;;;;;;-1.27;74.43;98947.12;238476;1202;23263;-75
2021/03/22 20:36:07;;;;;;;68.87;28.63;;;;;;;-1.34;74.33;98948.14;238528;1199;26111;-74
2021/03/22 20:41:20;;;;;;;58.65;25.15;;;;;;;-1.42;74.86;98957.86;238548;1200;23115;-75
2021/03/22 20:46:24;;;;;;;54.97;27.80;;;;;;;-1.46;74.99;98954.03;238545;1200;23227;-75
2021/03/22 20:51:44;;;;;;;55.07;27.03;;;;;;;-1.47;75.56;98955.06;238666;1202;23111;-75
2021/03/22 20:56:47;;;;;;;56.80;27.35;;;;;;;-1.47;75.12;98949.81;238735;1202;23568;-75
2021/03/22 21:01:50;;;;;;;45.67;24.40;;;;;;;-1.42;76.10;98951.81;238658;1199;23260;-74
2021/03/22 21:06:53;;;;;;;51.77;24.97;;;;;;;-1.34;76.49;98948.14;238408;1200;23141;-74
2021/03/22 21:11:57;;;;;;;60.15;26.90;;;;;;;-1.27;76.32;98955.00;238679;1199;23124;-75
2021/03/22 21:17:00;;;;;;;63.57;26.30;;;;;;;-1.21;76.45;98956.80;238472;1202;23111;-74
2021/03/22 21:22:03;;;;;;;64.30;29.25;;;;;;;-1.15;76.46;98955.16;238762;1202;23139;-75
2021/03/22 21:27:07;;;;;;;57.80;24.90;;;;;;;-1.10;76.35;98957.19;238488;1199;23100;-74
2021/03/22 21:32:10;;;;;;;64.50;29.93;;;;;;;-1.07;76.22;98946.25;238777;1200;23108;-74
2021/03/22 21:37:14;;;;;;;67.70;30.30;;;;;;;-0.99;76.60;98956.53;238584;1200;27090;-75
2021/03/22 21:42:16;;;;;;;63.10;26.90;;;;;;;-0.94;76.97;98951.44;238444;1200;23118;-76
2021/03/22 21:47:19;;;;;;;49.20;23.55;;;;;;;-0.83;77.13;98951.82;238530;1200;23129;-75
2021/03/22 21:52:22;;;;;;;60.90;27.97;;;;;;;-0.74;76.68;98951.37;238618;1199;23215;-74
2021/03/22 21:57:26;;;;;;;63.70;29.83;;;;;;;-0.67;76.67;98950.52;238476;1200;23119;-75
2021/03/22 22:02:28;;;;;;;66.00;29.27;;;;;;;-0.62;76.61;98951.50;238448;1199;23115;-75
2021/03/22 22:07:33;;;;;;;65.50;32.23;;;;;;;-0.58;76.58;98957.95;238476;1200;23129;-75
2021/03/22 22:12:36;;;;;;;58.67;26.17;;;;;;;-0.54;76.66;98953.88;238688;1200;23278;-76
2021/03/22 22:17:40;;;;;;;56.55;26.20;;;;;;;-0.52;76.63;98949.23;238699;1200;23111;-76
2021/03/22 22:22:45;;;;;;;61.20;29.60;;;;;;;-0.54;76.69;98943.36;238541;1199;23115;-76
2021/03/22 22:27:48;;;;;;;61.43;29.57;;;;;;;-0.60;76.24;98954.73;238640;1199;23119;-75
2021/03/22 22:32:51;;;;;;;60.53;28.83;;;;;;;-0.69;76.46;98953.36;238708;1200;23238;-74
2021/03/22 22:37:54;;;;;;;51.83;24.47;;;;;;;-0.77;76.58;98957.05;238508;1202;23116;-75
2021/03/22 22:42:58;;;;;;;46.10;21.00;;;;;;;-0.82;76.88;98962.13;238480;1200;23134;-76
2021/03/22 22:48:00;;;;;;;43.10;21.67;;;;;;;-0.86;76.73;98964.36;238724;1200;23466;-75
2021/03/22 22:53:04;;;;;;;56.70;25.20;;;;;;;-0.89;77.32;98967.41;238590;1199;26364;-75
2021/03/22 22:58:08;;;;;;;61.30;27.10;;;;;;;-0.91;77.25;98977.34;238423;1202;23103;-75
2021/03/22 23:03:25;;;;;;;57.70;23.87;;;;;;;-0.94;77.30;98975.11;238649;1202;23134;-74
2021/03/22 23:08:32;;;;;;;58.33;26.97;;;;;;;-0.93;77.84;98981.99;238628;1198;26240;-74
2021/03/22 23:13:35;;;;;;;57.15;25.90;;;;;;;-0.94;77.76;98977.73;238453;1200;23312;-73
2021/03/22 23:18:40;;;;;;;62.53;28.97;;;;;;;-0.95;77.71;98988.47;238463;1202;23125;-74
2021/03/22 23:23:46;;;;;;;57.47;27.07;;;;;;;-0.90;77.68;98994.72;238751;1200;23294;-73
2021/03/22 23:28:51;;;;;;;55.63;23.93;;;;;;;-0.90;78.17;99002.61;238722;1199;23109;-74
2021/03/22 23:33:58;;;;;;;64.43;27.67;;;;;;;-0.88;78.26;99005.86;238463;1199;23166;-75
2021/03/22 23:39:09;;;;;;;62.95;27.70;;;;;;;-0.83;78.03;98993.91;238540;1200;23115;-76
2021/03/22 23:44:12;;;;;;;58.23;26.73;;;;;;;-0.86;77.81;99003.02;238456;1200;23247;-74